You are not logged in, Click here to log in
Stuttgart Airport / EDDS Stuttgart
ICAO: EDDS Country: Stuttgart
Latitude: 48.6899 Longitude: 9.22196
Total Arrivals: 1 Total Departures: 1
Latest Arrival: LH126 (EDDF-EDDS)Stone. Chang Latest Departure: LH127 (EDDS-EDDF)Stone. Chang
Scenery: http://en.wikipedia.org/wiki/Berlin-Sch%C3%B6nefeld_International_Airport
METAR : EDDS 190350Z 18007KT 140V220 9999 -RA FEW010 BKN031 05/01 Q1019

Stuttgart Airport

You are accessing this site from IP address 35.175.113.29. Virtual Airline. CMS by phpVMS.Website designed by Zumeweb and edited by Theo Bearman.
There is 0 User(s) Online: | and 2 Guest(s) Online.
All information on this site is for fight simulation purposes only. This site is for flight logging for pilots of Virtual Airline&模擬飛行論壇 FlySim only.